Time;durP1;ratioP1;P1;durP2;ratioP2;P2;SDS_P1;SDS_P2;PMS_P1;PMS_P2;Temp;Humidity;BMP_temperature;BMP_pressure;BME280_temperature;BME280_humidity;BME280_pressure;Samples;Min_cycle;Max_cycle;Signal;HPM_P1;HPM_P2
2023/07/27 00:01:19;;;;;;;0.20;0.20;;;;;;;14.08;91.42;100052.88;5012354;28;20266;-87
2023/07/27 00:03:44;;;;;;;1.90;1.80;;;;;;;14.09;91.32;100051.72;5011965;28;20208;-85
2023/07/27 00:06:09;;;;;;;0.00;0.00;;;;;;;14.10;91.57;100058.81;5011868;28;20203;-86
2023/07/27 00:08:35;;;;;;;0.20;0.20;;;;;;;14.03;91.28;100044.84;5011738;28;20457;-85
2023/07/27 00:11:00;;;;;;;0.93;0.93;;;;;;;13.97;91.71;100052.53;5010335;28;20599;-86
2023/07/27 00:13:25;;;;;;;0.07;0.07;;;;;;;13.91;92.23;100040.97;5007576;28;20690;-87
2023/07/27 00:15:50;;;;;;;0.40;0.40;;;;;;;13.75;93.14;100044.75;4999687;28;20169;-85
2023/07/27 00:18:16;;;;;;;0.77;0.77;;;;;;;13.73;93.91;100044.28;5011499;28;20184;-85
2023/07/27 00:20:41;;;;;;;1.80;1.70;;;;;;;13.76;93.72;100041.66;5003874;28;20275;-84
2023/07/27 00:23:06;;;;;;;0.73;0.73;;;;;;;13.74;93.92;100046.66;5008593;28;20233;-84
2023/07/27 00:25:31;;;;;;;0.53;0.53;;;;;;;13.75;94.17;100047.50;5010503;28;20215;-86
2023/07/27 00:27:57;;;;;;;1.50;1.40;;;;;;;13.75;93.94;100045.56;5020047;28;20592;-86
2023/07/27 00:30:22;;;;;;;2.10;1.70;;;;;;;13.80;93.79;100042.56;5023744;28;20250;-86
2023/07/27 00:32:47;;;;;;;1.73;1.63;;;;;;;13.81;93.85;100040.63;5024209;28;20207;-85
2023/07/27 00:35:13;;;;;;;2.33;1.30;;;;;;;13.79;93.60;100040.19;5009539;28;20205;-85
2023/07/27 00:37:38;;;;;;;0.60;0.60;;;;;;;13.78;93.82;100033.88;5027914;28;20190;-85
2023/07/27 00:40:04;;;;;;;2.23;2.03;;;;;;;13.74;94.19;100034.88;5009793;28;20271;-85
2023/07/27 00:42:29;;;;;;;2.20;1.80;;;;;;;13.70;94.22;100030.09;5035244;28;20184;-86
2023/07/27 00:44:54;;;;;;;3.07;0.47;;;;;;;13.70;94.20;100029.28;5019241;28;20632;-85
2023/07/27 00:47:19;;;;;;;0.50;0.50;;;;;;;13.82;94.37;100029.28;5031995;28;20263;-86
2023/07/27 00:49:45;;;;;;;5.97;0.80;;;;;;;13.79;94.21;100029.19;5023975;28;20242;-86
2023/07/27 00:52:10;;;;;;;1.30;1.03;;;;;;;13.80;93.95;100031.59;5014154;28;20204;-84
2023/07/27 00:54:35;;;;;;;2.43;2.23;;;;;;;13.77;93.90;100021.28;5024205;28;20207;-85
2023/07/27 00:57:01;;;;;;;0.53;0.53;;;;;;;13.77;93.94;100015.00;5015013;28;20192;-85
2023/07/27 00:59:27;;;;;;;2.00;1.93;;;;;;;13.77;94.05;100017.75;5002941;28;20201;-86
2023/07/27 01:01:53;;;;;;;6.10;2.13;;;;;;;13.80;93.81;100017.06;5027021;28;20282;-84
2023/07/27 01:04:19;;;;;;;1.17;1.10;;;;;;;13.78;93.54;100008.38;5002164;28;20903;-85
2023/07/27 01:06:44;;;;;;;6.00;2.10;;;;;;;13.76;93.68;100013.41;5002670;28;20208;-85
2023/07/27 01:09:10;;;;;;;4.23;2.47;;;;;;;13.75;93.63;100015.34;5016632;28;20642;-84
2023/07/27 01:12:03;;;;;;;1.70;1.50;;;;;;;13.80;93.33;100014.31;5027151;28;20700;-85
2023/07/27 01:14:54;;;;;;;2.57;2.37;;;;;;;13.86;93.04;100015.69;5000108;28;20596;-85
2023/07/27 01:17:29;;;;;;;3.13;2.90;;;;;;;13.86;92.25;100004.69;5027134;28;20176;-84
2023/07/27 01:20:30;;;;;;;2.83;1.87;;;;;;;13.91;91.83;99999.00;5026516;28;20625;-84
2023/07/27 01:23:47;;;;;;;6.63;0.83;;;;;;;13.92;91.88;99993.16;5006585;28;20204;-86
2023/07/27 01:26:46;;;;;;;2.93;1.20;;;;;;;13.96;91.52;99996.00;4981522;28;20274;-85
2023/07/27 01:29:52;;;;;;;1.43;1.33;;;;;;;13.96;91.53;99990.50;5006898;28;20192;-85
2023/07/27 01:32:19;;;;;;;1.20;1.17;;;;;;;13.94;91.24;99987.31;5019148;28;20172;-86
2023/07/27 01:34:46;;;;;;;0.50;0.50;;;;;;;14.02;90.93;99974.56;5009283;28;20270;-85
2023/07/27 01:37:16;;;;;;;2.67;1.07;;;;;;;14.03;90.62;99976.97;5006454;28;20189;-86
2023/07/27 01:39:45;;;;;;;0.23;0.23;;;;;;;14.05;90.55;99976.66;5005606;28;20188;-85
2023/07/27 01:42:13;;;;;;;1.80;1.67;;;;;;;14.03;90.47;99976.97;5031925;28;20708;-85
2023/07/27 01:44:39;;;;;;;1.10;0.70;;;;;;;14.10;90.12;99974.47;5005639;28;20184;-87
2023/07/27 01:47:06;;;;;;;0.13;0.13;;;;;;;14.08;90.08;99971.25;5017488;28;20176;-87
2023/07/27 01:49:32;;;;;;;2.10;2.00;;;;;;;14.07;89.86;99964.16;5003081;28;20188;-85
2023/07/27 01:51:58;;;;;;;1.70;1.33;;;;;;;14.17;89.53;99963.66;5005488;28;20180;-86
2023/07/27 01:54:26;;;;;;;0.13;0.13;;;;;;;14.21;89.16;99958.31;4997581;28;20670;-85
2023/07/27 01:56:54;;;;;;;0.20;0.20;;;;;;;14.17;88.90;99943.63;5005352;28;20180;-85
2023/07/27 01:59:21;;;;;;;1.07;0.97;;;;;;;14.23;88.86;99961.50;5005123;28;20600;-85
2023/07/27 02:01:48;;;;;;;0.50;0.50;;;;;;;14.24;88.40;99946.59;5013040;28;20180;-85
2023/07/27 02:04:13;;;;;;;0.00;0.00;;;;;;;14.29;87.93;99941.66;5018934;28;20700;-85
2023/07/27 02:06:39;;;;;;;0.23;0.13;;;;;;;14.29;87.92;99929.88;5009600;28;20203;-86
2023/07/27 02:09:04;;;;;;;0.00;0.00;;;;;;;14.30;87.73;99931.47;5007294;28;20238;-85
2023/07/27 02:11:29;;;;;;;4.67;1.77;;;;;;;14.35;87.55;99931.25;5005406;28;20223;-85
2023/07/27 02:14:03;;;;;;;0.00;0.00;;;;;;;14.42;87.56;99934.16;5024016;28;20243;-85
2023/07/27 02:16:39;;;;;;;0.00;0.00;;;;;;;14.45;87.41;99930.75;5009135;28;20278;-86
2023/07/27 02:19:05;;;;;;;2.60;0.70;;;;;;;14.48;87.07;99930.06;5025179;28;20246;-86
2023/07/27 02:21:32;;;;;;;0.10;0.10;;;;;;;14.50;86.97;99932.47;5010960;28;20251;-86
2023/07/27 02:23:58;;;;;;;0.20;0.20;;;;;;;14.43;87.03;99924.78;5008321;28;20231;-86
2023/07/27 02:26:24;;;;;;;0.00;0.00;;;;;;;14.50;86.25;99925.03;5021647;28;20209;-85
2023/07/27 02:28:50;;;;;;;0.10;0.10;;;;;;;14.45;86.28;99918.97;5013035;28;20192;-86
2023/07/27 02:31:15;;;;;;;1.23;0.97;;;;;;;14.43;86.33;99913.78;5026107;28;20176;-86
2023/07/27 02:33:40;;;;;;;0.10;0.10;;;;;;;14.49;86.71;99917.13;5026283;28;20611;-86
2023/07/27 02:36:05;;;;;;;0.17;0.17;;;;;;;14.41;87.04;99901.53;5025926;28;20192;-86
2023/07/27 02:38:31;;;;;;;0.00;0.00;;;;;;;14.48;86.94;99916.31;5008810;28;20192;-86
2023/07/27 02:40:56;;;;;;;3.17;0.13;;;;;;;14.42;86.93;99911.38;5008085;28;20187;-85
2023/07/27 02:43:21;;;;;;;1.07;1.00;;;;;;;14.43;86.71;99905.53;5008310;28;20277;-86
2023/07/27 02:45:47;;;;;;;1.87;1.57;;;;;;;14.37;87.17;99908.91;5008104;28;20705;-85
2023/07/27 02:48:12;;;;;;;0.40;0.40;;;;;;;14.34;87.26;99902.16;5000529;28;20187;-85
2023/07/27 02:50:37;;;;;;;0.20;0.20;;;;;;;14.34;87.67;99904.91;5009955;28;20192;-85
2023/07/27 02:53:02;;;;;;;0.67;0.30;;;;;;;14.37;87.72;99906.16;5022497;28;20246;-86
2023/07/27 02:55:28;;;;;;;0.00;0.00;;;;;;;14.33;88.05;99891.53;5004829;28;20243;-85
2023/07/27 02:57:53;;;;;;;0.00;0.00;;;;;;;14.41;88.43;99890.56;4997062;28;20280;-85
2023/07/27 03:00:18;;;;;;;1.00;1.00;;;;;;;14.46;87.98;99891.13;5012321;28;20234;-84
2023/07/27 03:02:44;;;;;;;0.00;0.00;;;;;;;14.46;87.92;99887.56;5022048;28;20275;-85
2023/07/27 03:05:09;;;;;;;0.20;0.17;;;;;;;14.46;87.93;99887.56;5003973;28;20203;-85
2023/07/27 03:07:35;;;;;;;0.10;0.10;;;;;;;14.53;87.48;99891.31;5004228;28;20558;-85
2023/07/27 03:10:00;;;;;;;0.20;0.20;;;;;;;14.54;87.80;99883.88;5022281;28;20212;-85
2023/07/27 03:12:25;;;;;;;0.00;0.00;;;;;;;14.50;87.96;99874.75;5022047;28;20178;-85
2023/07/27 03:14:50;;;;;;;1.10;1.10;;;;;;;14.52;87.78;99881.47;5004309;28;20242;-85
2023/07/27 03:17:16;;;;;;;0.10;0.10;;;;;;;14.64;87.44;99874.31;5025529;28;20559;-85
2023/07/27 03:19:41;;;;;;;0.00;0.00;;;;;;;14.72;86.88;99879.66;5008511;28;20180;-85
2023/07/27 03:22:06;;;;;;;0.07;0.07;;;;;;;14.71;86.52;99874.50;5005935;28;20179;-86
2023/07/27 03:24:33;;;;;;;0.47;0.47;;;;;;;14.74;86.37;99874.59;5001981;28;20211;-86
2023/07/27 03:26:58;;;;;;;0.20;0.20;;;;;;;14.69;86.51;99871.31;5016651;28;20219;-86
2023/07/27 03:29:23;;;;;;;0.27;0.27;;;;;;;14.57;87.12;99861.19;5022196;28;20184;-85
2023/07/27 03:31:49;;;;;;;0.20;0.13;;;;;;;14.49;87.51;99859.41;5012122;28;20245;-86
2023/07/27 03:34:14;;;;;;;2.17;1.03;;;;;;;14.62;87.04;99857.38;5017670;28;20235;-85
2023/07/27 03:36:39;;;;;;;0.30;0.30;;;;;;;14.71;86.69;99855.25;5009586;28;20184;-85
2023/07/27 03:39:04;;;;;;;0.77;0.77;;;;;;;14.76;86.49;99855.00;5004942;28;20196;-86
2023/07/27 03:41:30;;;;;;;1.50;1.03;;;;;;;14.89;85.88;99851.78;5001775;28;20274;-86
2023/07/27 03:43:55;;;;;;;0.00;0.00;;;;;;;14.88;85.29;99844.69;5025367;28;20203;-86
2023/07/27 03:46:20;;;;;;;1.17;1.17;;;;;;;14.97;85.31;99857.50;5022021;28;20201;-85
2023/07/27 03:48:48;;;;;;;0.53;0.53;;;;;;;15.03;84.57;99858.81;5005297;28;20215;-85
2023/07/27 03:51:13;;;;;;;1.67;0.70;;;;;;;15.04;84.24;99852.16;5024738;28;20275;-86
2023/07/27 03:53:39;;;;;;;2.43;1.13;;;;;;;15.06;84.49;99841.63;5008415;28;20239;-86
2023/07/27 03:56:05;;;;;;;0.27;0.27;;;;;;;15.03;84.80;99837.59;5024201;28;20183;-85
2023/07/27 03:58:31;;;;;;;0.03;0.03;;;;;;;15.01;84.53;99834.41;5000472;28;20184;-86
2023/07/27 04:00:56;;;;;;;0.17;0.17;;;;;;;15.07;84.66;99843.22;5008875;28;20240;-86
2023/07/27 04:03:22;;;;;;;0.20;0.20;;;;;;;15.06;84.71;99830.59;5025037;28;20698;-85
2023/07/27 04:05:47;;;;;;;0.37;0.37;;;;;;;15.05;84.91;99829.00;5025686;28;20666;-85
2023/07/27 04:08:12;;;;;;;5.50;0.57;;;;;;;15.08;84.93;99836.53;5025875;28;20186;-85
2023/07/27 04:10:40;;;;;;;0.17;0.17;;;;;;;15.04;85.71;99833.69;5008321;28;20338;-85
2023/07/27 04:13:05;;;;;;;0.00;0.00;;;;;;;15.06;85.54;99828.66;5033443;28;20224;-86
2023/07/27 04:15:30;;;;;;;0.00;0.00;;;;;;;15.09;85.73;99824.38;5026335;28;20215;-86
2023/07/27 04:17:56;;;;;;;0.40;0.40;;;;;;;15.14;85.45;99833.16;5026262;28;20187;-85
2023/07/27 04:20:21;;;;;;;0.00;0.00;;;;;;;15.04;85.33;99819.94;5007802;28;20180;-85
2023/07/27 04:22:46;;;;;;;0.30;0.20;;;;;;;15.10;86.18;99831.47;5007385;28;20204;-86
2023/07/27 04:25:11;;;;;;;0.30;0.30;;;;;;;15.17;85.90;99837.13;5029045;28;20202;-85
2023/07/27 04:27:37;;;;;;;1.00;0.60;;;;;;;15.11;86.33;99830.31;5029103;28;20184;-85
2023/07/27 04:30:02;;;;;;;0.00;0.00;;;;;;;15.04;86.34;99828.19;5009754;28;20191;-86
2023/07/27 04:32:27;;;;;;;1.97;1.53;;;;;;;15.04;86.99;99832.88;5008063;28;20185;-85
2023/07/27 04:34:53;;;;;;;0.00;0.00;;;;;;;15.05;87.02;99837.25;5016010;28;20175;-85
2023/07/27 04:37:18;;;;;;;0.87;0.47;;;;;;;15.01;86.92;99831.66;5007863;28;20177;-85
2023/07/27 04:39:43;;;;;;;5.00;1.07;;;;;;;14.98;87.80;99823.31;5017062;28;20766;-86
2023/07/27 04:42:09;;;;;;;0.20;0.20;;;;;;;15.06;87.46;99823.16;5007402;28;20175;-85
2023/07/27 04:44:34;;;;;;;0.73;0.37;;;;;;;15.05;87.35;99815.25;5025713;28;20196;-86
2023/07/27 04:46:59;;;;;;;1.40;1.30;;;;;;;15.02;87.51;99811.25;5026599;28;20231;-86
2023/07/27 04:49:25;;;;;;;0.30;0.27;;;;;;;15.12;87.09;99804.41;5011426;28;20585;-86
2023/07/27 04:51:50;;;;;;;0.40;0.40;;;;;;;15.14;86.88;99807.59;5029821;28;20255;-86
2023/07/27 04:54:15;;;;;;;2.77;1.10;;;;;;;15.10;87.11;99806.72;5004157;28;20259;-85
2023/07/27 04:56:40;;;;;;;1.87;1.47;;;;;;;15.13;87.03;99812.28;5006145;28;20184;-86
2023/07/27 04:59:06;;;;;;;0.00;0.00;;;;;;;15.27;86.64;99819.28;5010692;28;20246;-86
2023/07/27 05:01:31;;;;;;;0.10;0.10;;;;;;;15.31;86.64;99807.19;5012227;28;20250;-86
2023/07/27 05:03:56;;;;;;;1.03;0.93;;;;;;;15.18;87.13;99803.75;5011241;28;20200;-85
2023/07/27 05:06:22;;;;;;;1.00;1.00;;;;;;;15.15;87.00;99798.19;5005534;28;20200;-86
2023/07/27 05:08:47;;;;;;;0.00;0.00;;;;;;;15.20;87.10;99795.16;5030049;28;20214;-84
2023/07/27 05:11:12;;;;;;;0.53;0.53;;;;;;;15.23;86.52;99786.19;5011448;28;20274;-85
2023/07/27 05:13:38;;;;;;;0.00;0.00;;;;;;;15.30;86.31;99782.78;5028708;28;20216;-86
2023/07/27 05:16:03;;;;;;;2.63;1.90;;;;;;;15.26;86.29;99776.41;5008187;28;20227;-86
2023/07/27 05:18:29;;;;;;;1.03;1.00;;;;;;;15.31;85.96;99774.16;5006178;28;20327;-85
2023/07/27 05:20:55;;;;;;;2.03;0.87;;;;;;;15.35;85.78;99772.31;5005511;28;20234;-84
2023/07/27 05:23:20;;;;;;;1.23;1.13;;;;;;;15.38;85.63;99777.09;5026880;28;20204;-86
2023/07/27 05:25:47;;;;;;;3.13;0.87;;;;;;;15.40;85.49;99782.25;5027458;28;20203;-86
2023/07/27 05:28:12;;;;;;;1.07;0.67;;;;;;;15.46;nan;99786.28;5025233;28;20177;-84
2023/07/27 05:30:37;;;;;;;0.77;0.77;;;;;;;15.45;85.19;99784.69;5026989;28;20176;-86
2023/07/27 05:33:03;;;;;;;0.70;0.70;;;;;;;15.40;84.82;99774.78;5027612;28;20200;-87
2023/07/27 05:35:28;;;;;;;0.77;0.77;;;;;;;15.42;84.64;99786.22;5006000;28;20191;-85
2023/07/27 05:37:53;;;;;;;2.47;0.80;;;;;;;15.42;84.81;99786.22;5019630;28;20658;-86
2023/07/27 05:40:18;;;;;;;0.40;0.40;;;;;;;15.52;85.25;99795.09;5013920;28;20184;-85
2023/07/27 05:42:44;;;;;;;2.03;1.30;;;;;;;15.55;85.41;99788.84;5023095;28;20220;-86
2023/07/27 05:45:09;;;;;;;0.83;0.83;;;;;;;15.44;85.81;99785.84;5023135;28;20286;-85
2023/07/27 05:47:35;;;;;;;0.67;0.47;;;;;;;15.45;85.61;99790.22;5001655;28;20188;-85
2023/07/27 05:50:02;;;;;;;0.00;0.00;;;;;;;15.57;86.10;99797.53;5001518;28;20184;-86
2023/07/27 05:52:27;;;;;;;1.00;1.00;;;;;;;15.52;85.86;99801.38;5022653;28;20183;-85
2023/07/27 05:54:52;;;;;;;0.40;0.40;;;;;;;15.67;85.61;99808.81;5025640;28;20595;-84
2023/07/27 05:57:18;;;;;;;1.10;1.00;;;;;;;15.78;84.63;99800.78;5008906;28;20194;-84
2023/07/27 05:59:43;;;;;;;1.37;1.23;;;;;;;15.92;84.04;99792.81;5026145;28;20190;-85
2023/07/27 06:02:09;;;;;;;0.60;0.60;;;;;;;15.92;82.86;99795.56;5019916;28;20250;-84
2023/07/27 06:04:34;;;;;;;0.23;0.23;;;;;;;16.05;82.96;99788.72;5008703;28;20290;-85
2023/07/27 06:06:59;;;;;;;1.20;0.93;;;;;;;15.92;82.28;99783.75;5006689;28;20235;-84
2023/07/27 06:09:25;;;;;;;1.03;0.87;;;;;;;15.90;82.58;99789.59;5016324;28;20180;-86
2023/07/27 06:11:52;;;;;;;0.67;0.50;;;;;;;15.90;82.72;99789.59;5025649;28;20180;-84
2023/07/27 06:14:18;;;;;;;0.87;0.67;;;;;;;15.82;83.07;99796.16;5011114;28;20208;-85
2023/07/27 06:16:43;;;;;;;0.67;0.57;;;;;;;15.94;83.32;99800.72;5019983;28;20165;-85
2023/07/27 06:19:08;;;;;;;0.80;0.80;;;;;;;15.91;83.09;99793.16;5013762;28;20180;-84
2023/07/27 06:21:34;;;;;;;1.10;0.97;;;;;;;15.90;83.34;99799.81;5013271;28;20176;-85
2023/07/27 06:23:59;;;;;;;4.77;1.70;;;;;;;15.88;82.67;99799.41;5005100;28;20207;-84
2023/07/27 06:26:24;;;;;;;1.07;0.93;;;;;;;15.92;82.64;99797.53;5023203;28;20694;-85
2023/07/27 06:28:50;;;;;;;0.57;0.57;;;;;;;16.02;82.60;99792.22;5004346;28;20182;-85
2023/07/27 06:31:15;;;;;;;3.20;1.20;;;;;;;16.10;82.54;99790.41;5004738;28;20286;-85
2023/07/27 06:33:40;;;;;;;1.00;0.50;;;;;;;16.19;81.54;99796.47;5028090;28;20536;-85
2023/07/27 06:36:11;;;;;;;0.47;0.47;;;;;;;16.25;80.77;99791.47;5021430;28;20191;-86
2023/07/27 06:38:37;;;;;;;0.40;0.23;;;;;;;16.29;80.88;99775.78;5010393;28;20237;-86
2023/07/27 06:41:03;;;;;;;0.37;0.37;;;;;;;16.45;81.14;99795.78;5016801;28;20682;-85
2023/07/27 06:43:28;;;;;;;0.00;0.00;;;;;;;16.44;80.44;99782.34;5014735;28;20209;-85
2023/07/27 06:45:53;;;;;;;0.00;0.00;;;;;;;16.42;80.49;99774.44;4995942;28;20286;-84
2023/07/27 06:48:18;;;;;;;1.13;1.03;;;;;;;16.53;80.51;99786.47;5014439;28;20184;-85
2023/07/27 06:50:50;;;;;;;0.00;0.00;;;;;;;16.64;80.65;99798.50;5001580;28;20199;-87
2023/07/27 06:53:15;;;;;;;0.70;0.53;;;;;;;16.60;80.47;99792.09;4999078;28;20258;-85
2023/07/27 06:55:41;;;;;;;0.97;0.30;;;;;;;16.58;80.70;99788.91;5015472;28;20180;-85
2023/07/27 06:58:06;;;;;;;0.27;0.27;;;;;;;16.46;81.15;99780.03;5005273;28;20195;-85
2023/07/27 07:00:32;;;;;;;0.00;0.00;;;;;;;16.38;82.18;99786.59;5003791;28;20251;-86
2023/07/27 07:02:58;;;;;;;1.40;1.30;;;;;;;16.24;82.58;99787.13;5022871;28;20200;-85
2023/07/27 07:05:23;;;;;;;0.50;0.50;;;;;;;16.11;83.35;99780.97;5025051;28;20206;-86
2023/07/27 07:07:49;;;;;;;1.30;1.20;;;;;;;16.04;85.17;99798.16;4999638;28;20188;-86
2023/07/27 07:10:14;;;;;;;0.73;0.37;;;;;;;15.97;85.62;99802.75;5012414;28;20176;-86
2023/07/27 07:12:40;;;;;;;0.50;0.50;;;;;;;15.99;86.38;99803.97;5013280;28;20196;-86
2023/07/27 07:15:06;;;;;;;7.20;0.83;;;;;;;15.92;87.25;99797.53;5006560;28;20246;-85
2023/07/27 07:17:31;;;;;;;0.47;0.47;;;;;;;15.91;88.12;99788.47;5008452;28;20657;-87
2023/07/27 07:19:57;;;;;;;0.83;0.83;;;;;;;15.87;88.90;99784.03;5011885;28;20275;-83
2023/07/27 07:22:22;;;;;;;0.00;0.00;;;;;;;15.82;89.45;99779.63;5015462;28;20199;-85
2023/07/27 07:24:47;;;;;;;0.10;0.10;;;;;;;15.92;89.92;99794.78;5004111;28;20251;-86
2023/07/27 07:27:13;;;;;;;0.00;0.00;;;;;;;15.94;89.92;99793.25;5022387;28;20548;-87
2023/07/27 07:29:38;;;;;;;0.00;0.00;;;;;;;15.96;91.08;99790.94;5008521;28;20211;-86
2023/07/27 07:32:03;;;;;;;0.00;0.00;;;;;;;16.10;91.45;99784.09;5015865;28;20179;-87
2023/07/27 07:34:33;;;;;;;0.00;0.00;;;;;;;16.13;92.85;99797.16;5007963;28;20685;-86
2023/07/27 07:36:59;;;;;;;0.07;0.07;;;;;;;16.19;92.58;99790.16;5011737;28;20263;-87
2023/07/27 07:39:25;;;;;;;0.00;0.00;;;;;;;16.16;93.04;99790.91;5011669;28;20661;-86
2023/07/27 07:41:50;;;;;;;1.53;0.83;;;;;;;16.05;93.41;99777.69;5003330;28;20729;-86
2023/07/27 07:44:15;;;;;;;0.40;0.40;;;;;;;16.13;93.18;99784.16;5008148;28;20200;-88
2023/07/27 07:46:40;;;;;;;0.53;0.53;;;;;;;16.09;94.37;99782.50;5006308;28;20257;-86
2023/07/27 07:49:06;;;;;;;0.37;0.37;;;;;;;16.01;94.78;99778.81;5026809;28;20183;-86
2023/07/27 07:51:31;;;;;;;0.00;0.00;;;;;;;16.04;95.78;99776.09;5031342;28;20176;-86
2023/07/27 07:53:56;;;;;;;0.47;0.30;;;;;;;16.05;96.54;99788.72;5010627;28;20219;-86
2023/07/27 07:56:21;;;;;;;0.00;0.00;;;;;;;15.97;97.15;99778.75;5026037;28;20182;-86
2023/07/27 07:58:47;;;;;;;0.00;0.00;;;;;;;15.97;98.46;99789.75;5033208;28;20745;-87
2023/07/27 08:01:13;;;;;;;0.00;0.00;;;;;;;16.01;98.17;99773.28;5008324;28;20226;-87
2023/07/27 08:03:38;;;;;;;0.00;0.00;;;;;;;16.12;98.97;99776.25;5031816;28;20249;-86
2023/07/27 08:06:03;;;;;;;0.00;0.00;;;;;;;16.23;99.34;99780.03;5026544;28;20611;-87
2023/07/27 08:08:29;;;;;;;0.00;0.00;;;;;;;16.25;99.57;99767.47;5024976;28;20551;-87
2023/07/27 08:11:00;;;;;;;0.00;0.00;;;;;;;16.15;100.00;99764.50;5007238;28;20184;-85
2023/07/27 08:13:25;;;;;;;0.00;0.00;;;;;;;16.12;100.00;99754.22;5010166;28;20303;-85
2023/07/27 08:15:52;;;;;;;0.07;0.07;;;;;;;16.12;100.00;99755.00;5011036;28;20208;-88
2023/07/27 08:18:17;;;;;;;0.23;0.10;;;;;;;16.09;100.00;99749.44;5007604;28;20333;-86
2023/07/27 08:20:42;;;;;;;1.17;1.17;;;;;;;16.03;100.00;99741.44;5007389;28;20681;-86
2023/07/27 08:23:08;;;;;;;0.00;0.00;;;;;;;16.04;100.00;99734.78;5006895;28;20712;-87
2023/07/27 08:25:37;;;;;;;0.00;0.00;;;;;;;16.09;100.00;99725.44;5007055;28;20295;-88
2023/07/27 08:28:02;;;;;;;0.30;0.30;;;;;;;15.99;100.00;99715.81;5009126;28;20555;-86
2023/07/27 08:30:28;;;;;;;0.00;0.00;;;;;;;16.10;100.00;99717.97;5031411;28;20188;-87
2023/07/27 08:32:53;;;;;;;0.00;0.00;;;;;;;16.18;100.00;99720.47;5024487;28;20693;-88
2023/07/27 08:35:18;;;;;;;0.00;0.00;;;;;;;16.21;100.00;99710.69;5013911;28;20187;-87
2023/07/27 08:37:44;;;;;;;0.00;0.00;;;;;;;16.18;100.00;99711.41;5006818;28;20180;-88
2023/07/27 08:40:09;;;;;;;0.10;0.10;;;;;;;16.24;100.00;99704.44;5008502;28;20195;-84
2023/07/27 08:42:36;;;;;;;9.73;0.67;;;;;;;16.19;100.00;99699.22;5008860;28;20249;-87
2023/07/27 08:45:01;;;;;;;0.10;0.10;;;;;;;16.23;100.00;99695.38;4995203;28;20183;-87
2023/07/27 08:47:28;;;;;;;0.00;0.00;;;;;;;16.39;100.00;99700.75;5017583;28;20193;-87
2023/07/27 08:49:55;;;;;;;0.10;0.10;;;;;;;16.30;100.00;99686.41;5013395;28;20186;-86
2023/07/27 08:52:23;;;;;;;0.73;0.30;;;;;;;16.25;100.00;99675.69;5022695;28;20181;-87
2023/07/27 08:54:48;;;;;;;0.10;0.00;;;;;;;16.22;100.00;99657.94;5005741;28;20185;-87
2023/07/27 08:57:14;;;;;;;0.13;0.13;;;;;;;16.17;100.00;99668.47;5023555;28;20260;-87
2023/07/27 08:59:39;;;;;;;0.17;0.17;;;;;;;16.13;100.00;99659.34;5006053;28;20238;-87
2023/07/27 09:02:05;;;;;;;0.20;0.20;;;;;;;16.07;100.00;99658.88;5004237;28;20211;-87
2023/07/27 09:04:30;;;;;;;0.40;0.40;;;;;;;16.18;100.00;99664.53;5007251;28;20192;-88
2023/07/27 09:06:56;;;;;;;0.10;0.10;;;;;;;16.23;100.00;99647.72;5032825;28;20203;-86
2023/07/27 09:09:25;;;;;;;0.20;0.20;;;;;;;16.31;100.00;99650.19;5014069;28;20551;-86
2023/07/27 09:11:52;;;;;;;0.50;0.50;;;;;;;16.35;100.00;99656.59;5024766;28;20226;-87
2023/07/27 09:14:19;;;;;;;0.00;0.00;;;;;;;16.41;100.00;99653.50;5016676;28;20224;-87
2023/07/27 09:16:45;;;;;;;0.17;0.17;;;;;;;16.48;100.00;99659.13;5005489;28;20179;-86
2023/07/27 09:19:11;;;;;;;0.33;0.33;;;;;;;16.45;100.00;99654.34;5006964;28;20185;-87
2023/07/27 09:21:43;;;;;;;0.00;0.00;;;;;;;16.40;100.00;99651.91;5005499;28;20193;-87
2023/07/27 09:24:12;;;;;;;0.00;0.00;;;;;;;16.49;100.00;99661.53;5006431;28;20257;-86
2023/07/27 09:26:44;;;;;;;0.00;0.00;;;;;;;16.52;100.00;99663.56;5015546;28;20199;-87
2023/07/27 09:29:09;;;;;;;0.00;0.00;;;;;;;16.61;100.00;99664.06;5026375;28;20172;-87
2023/07/27 09:31:43;;;;;;;0.00;0.00;;;;;;;16.72;100.00;99657.94;5012160;28;20271;-85
2023/07/27 09:34:08;;;;;;;0.00;0.00;;;;;;;16.65;100.00;99669.66;5016250;28;20204;-88
2023/07/27 09:36:33;;;;;;;0.00;0.00;;;;;;;16.59;100.00;99663.63;5008302;28;20351;-87
2023/07/27 09:39:00;;;;;;;0.67;0.47;;;;;;;16.63;100.00;99660.94;5024876;28;20175;-86
2023/07/27 09:41:25;;;;;;;1.33;1.23;;;;;;;16.30;100.00;99656.88;4998666;28;20256;-85
2023/07/27 09:43:50;;;;;;;0.00;0.00;;;;;;;16.30;100.00;99651.38;5006879;28;20208;-87
2023/07/27 09:46:22;;;;;;;0.03;0.03;;;;;;;16.25;100.00;99654.44;5006266;28;20213;-86
2023/07/27 09:48:48;;;;;;;0.00;0.00;;;;;;;16.38;100.00;99645.97;5006009;28;20199;-87
2023/07/27 09:51:15;;;;;;;0.10;0.10;;;;;;;16.35;100.00;99636.50;5022922;28;20187;-87
2023/07/27 09:53:43;;;;;;;0.10;0.10;;;;;;;16.43;100.00;99635.44;5021749;28;20203;-86
2023/07/27 09:56:10;;;;;;;0.00;0.00;;;;;;;16.50;100.00;99624.53;5026772;28;20176;-86
2023/07/27 09:58:36;;;;;;;0.00;0.00;;;;;;;16.47;100.00;99628.00;5003659;28;20243;-86
2023/07/27 10:01:02;;;;;;;0.13;0.13;;;;;;;16.37;100.00;99620.38;5017152;28;20640;-86
2023/07/27 10:03:27;;;;;;;0.87;0.30;;;;;;;16.39;100.00;99609.78;5017199;28;20622;-86
2023/07/27 10:05:54;;;;;;;0.00;0.00;;;;;;;16.41;100.00;99607.44;5009415;28;20211;-86
2023/07/27 10:08:19;;;;;;;0.00;0.00;;;;;;;16.39;100.00;99604.25;5013444;28;20218;-85
2023/07/27 10:10:52;;;;;;;0.40;0.40;;;;;;;16.42;100.00;99603.50;5021706;28;20187;-85
2023/07/27 10:13:23;;;;;;;0.00;0.00;;;;;;;16.34;100.00;99604.56;5009431;28;20210;-86
2023/07/27 10:15:50;;;;;;;0.00;0.00;;;;;;;16.20;100.00;99598.81;5027150;28;20207;-86
2023/07/27 10:18:20;;;;;;;0.47;0.47;;;;;;;16.36;100.00;99602.25;5009245;28;20180;-87
2023/07/27 10:20:45;;;;;;;0.20;0.20;;;;;;;16.44;100.00;99595.66;5008870;28;20179;-86
2023/07/27 10:23:19;;;;;;;0.20;0.13;;;;;;;16.50;100.00;99588.69;5000270;28;20200;-86
2023/07/27 10:26:05;;;;;;;0.00;0.00;;;;;;;16.58;100.00;99598.63;5009417;28;20199;-86
2023/07/27 10:28:43;;;;;;;0.00;0.00;;;;;;;16.56;100.00;99595.44;5016413;28;20216;-85
2023/07/27 10:31:20;;;;;;;0.00;0.00;;;;;;;16.49;100.00;99589.03;5025902;28;20259;-85
2023/07/27 10:34:07;;;;;;;0.37;0.37;;;;;;;16.44;100.00;99587.38;5009629;28;20765;-85
2023/07/27 10:36:51;;;;;;;0.30;0.30;;;;;;;16.48;100.00;99584.66;5016633;28;20184;-86
2023/07/27 10:39:21;;;;;;;0.50;0.50;;;;;;;16.32;100.00;99579.31;5013699;28;20191;-85
2023/07/27 10:42:01;;;;;;;0.10;0.10;;;;;;;16.16;100.00;99565.69;5023185;28;20262;-85
2023/07/27 10:44:27;;;;;;;0.00;0.00;;;;;;;16.35;100.00;99573.88;4999793;28;20238;-86
2023/07/27 10:46:57;;;;;;;0.00;0.00;;;;;;;16.44;100.00;99581.88;5023085;28;20200;-85
2023/07/27 10:49:22;;;;;;;0.03;0.03;;;;;;;16.46;100.00;99575.97;5022971;28;20204;-87
2023/07/27 10:51:49;;;;;;;0.70;0.60;;;;;;;16.16;100.00;99559.38;5022236;28;20180;-86
2023/07/27 10:54:14;;;;;;;0.00;0.00;;;;;;;16.15;100.00;99561.34;5007958;28;20238;-84
2023/07/27 10:56:43;;;;;;;0.00;0.00;;;;;;;16.17;100.00;99560.97;5025999;28;20175;-86
2023/07/27 10:59:14;;;;;;;0.00;0.00;;;;;;;16.24;100.00;99567.41;5007369;28;20179;-84
2023/07/27 11:01:40;;;;;;;0.00;0.00;;;;;;;16.20;100.00;99550.03;5013825;28;20183;-87
2023/07/27 11:04:06;;;;;;;0.10;0.10;;;;;;;16.34;100.00;99558.47;5007760;28;20284;-87
2023/07/27 11:06:41;;;;;;;0.00;0.00;;;;;;;16.46;100.00;99551.97;5004932;28;20292;-86
2023/07/27 11:09:15;;;;;;;0.50;0.27;;;;;;;16.44;100.00;99554.28;5022837;28;20211;-88
2023/07/27 11:11:41;;;;;;;0.00;0.00;;;;;;;16.44;100.00;99553.50;5005368;28;20242;-86
2023/07/27 11:14:07;;;;;;;0.00;0.00;;;;;;;16.44;100.00;99554.28;5031809;28;20708;-87
2023/07/27 11:16:37;;;;;;;0.10;0.10;;;;;;;16.35;100.00;99554.59;5011478;28;20206;-87
2023/07/27 11:19:05;;;;;;;0.00;0.00;;;;;;;16.38;100.00;99552.25;5025549;28;20179;-86
2023/07/27 11:21:32;;;;;;;0.10;0.00;;;;;;;16.35;100.00;99548.28;5004911;28;20271;-87
2023/07/27 11:23:57;;;;;;;0.53;0.50;;;;;;;16.19;100.00;99531.88;5013645;28;20204;-86
2023/07/27 11:26:26;;;;;;;0.53;0.33;;;;;;;16.13;100.00;99538.09;5008093;28;20213;-86
2023/07/27 11:28:54;;;;;;;0.07;0.07;;;;;;;16.19;100.00;99536.59;5001770;28;20267;-86